Time;durP1;ratioP1;P1;durP2;ratioP2;P2;SDS_P1;SDS_P2;PMS_P1;PMS_P2;Temp;Humidity;BMP_temperature;BMP_pressure;BME280_temperature;BME280_humidity;BME280_pressure;Samples;Min_cycle;Max_cycle;Signal;HPM_P1;HPM_P2
2023/09/24 00:03:14;;;;;;;5.80;3.40;;;;;;;;;;5055314;28;20200;-74
2023/09/24 00:05:41;;;;;;;6.50;3.53;;;;;;;;;;5037607;28;20261;-73
2023/09/24 00:08:08;;;;;;;4.00;3.60;;;;;;;;;;5054201;28;20570;-73
2023/09/24 00:10:35;;;;;;;5.50;3.47;;;;;;;;;;5037887;28;20190;-73
2023/09/24 00:13:02;;;;;;;4.37;3.57;;;;;;;;;;5055520;28;20641;-73
2023/09/24 00:15:30;;;;;;;4.37;3.00;;;;;;;;;;5065310;28;20190;-73
2023/09/24 00:17:57;;;;;;;4.50;3.10;;;;;;;;;;5075030;28;20193;-73
2023/09/24 00:20:24;;;;;;;4.63;3.30;;;;;;;;;;5040869;28;20276;-73
2023/09/24 00:22:52;;;;;;;4.03;2.80;;;;;;;;;;5040846;28;20218;-73
2023/09/24 00:25:18;;;;;;;4.57;3.30;;;;;;;;;;5057116;28;20244;-73
2023/09/24 00:27:45;;;;;;;3.80;3.40;;;;;;;;;;5057467;28;20276;-74
2023/09/24 00:34:11;;;;;;;5.20;3.37;;;;;;;;;;5074729;28;20572;-74
2023/09/24 00:36:38;;;;;;;3.67;3.23;;;;;;;;;;5057490;28;20569;-74
2023/09/24 00:39:05;;;;;;;3.50;3.17;;;;;;;;;;5040400;28;20186;-73
2023/09/24 00:41:32;;;;;;;3.87;3.27;;;;;;;;;;5057780;28;20201;-73
2023/09/24 00:44:16;;;;;;;3.33;3.03;;;;;;;;;;5074514;28;20687;-73
2023/09/24 00:46:43;;;;;;;4.63;3.07;;;;;;;;;;5075211;28;20182;-74
2023/09/24 00:49:13;;;;;;;4.90;3.17;;;;;;;;;;5040256;28;20204;-73
2023/09/24 00:59:55;;;;;;;3.37;3.00;;;;;;;;;;5074341;28;20153;-74
2023/09/24 01:02:22;;;;;;;4.30;3.00;;;;;;;;;;5040218;28;20281;-74
2023/09/24 01:08:48;;;;;;;6.23;3.10;;;;;;;;;;5073998;28;20212;-74
2023/09/24 01:51:07;;;;;;;3.77;3.17;;;;;;;;;;5073674;28;20239;-74
2023/09/24 01:53:38;;;;;;;5.03;3.70;;;;;;;;;;5039772;28;20181;-74
2023/09/24 01:56:23;;;;;;;5.30;3.13;;;;;;;;;;5041793;28;20253;-74
2023/09/24 01:58:51;;;;;;;6.37;2.97;;;;;;;;;;5055719;28;20190;-74
2023/09/24 02:01:18;;;;;;;4.00;3.00;;;;;;;;;;5073635;28;20206;-74
2023/09/24 02:03:48;;;;;;;3.10;2.80;;;;;;;;;;5073386;28;20205;-74
2023/09/24 02:06:15;;;;;;;4.70;3.30;;;;;;;;;;5073721;28;20641;-74
2023/09/24 02:08:44;;;;;;;4.57;3.30;;;;;;;;;;5055957;28;20208;-74
2023/09/24 02:11:13;;;;;;;4.60;3.10;;;;;;;;;;5074316;28;20206;-74
2023/09/24 02:13:40;;;;;;;3.10;2.83;;;;;;;;;;5055636;28;20193;-74
2023/09/24 02:16:07;;;;;;;4.60;2.70;;;;;;;;;;5073503;28;20186;-74
2023/09/24 02:18:34;;;;;;;4.43;2.80;;;;;;;;;;5055650;28;20643;-74
2023/09/24 02:21:01;;;;;;;2.97;2.63;;;;;;;;;;5072228;28;20293;-74
2023/09/24 02:23:28;;;;;;;3.70;2.83;;;;;;;;;;5055742;28;20629;-74
2023/09/24 02:25:56;;;;;;;3.27;2.97;;;;;;;;;;5073523;28;20587;-74
2023/09/24 02:28:24;;;;;;;5.17;2.80;;;;;;;;;;5055858;28;20178;-74
2023/09/24 02:39:11;;;;;;;4.97;3.30;;;;;;;;;;5073170;28;20207;-74
2023/09/24 02:41:38;;;;;;;4.07;3.47;;;;;;;;;;5076152;28;20174;-74
2023/09/24 02:44:05;;;;;;;5.50;3.67;;;;;;;;;;5059300;28;20206;-74
2023/09/24 02:50:32;;;;;;;7.23;3.77;;;;;;;;;;5076749;28;20149;-74
2023/09/24 02:56:59;;;;;;;6.90;3.50;;;;;;;;;;5076542;28;20552;-74
2023/09/24 02:59:25;;;;;;;3.50;3.20;;;;;;;;;;5076923;28;20190;-74
2023/09/24 03:01:52;;;;;;;4.70;3.47;;;;;;;;;;5041946;28;20513;-74
2023/09/24 03:04:22;;;;;;;3.90;3.50;;;;;;;;;;5059404;28;20201;-74
2023/09/24 03:06:49;;;;;;;5.93;3.40;;;;;;;;;;5042361;28;20186;-74
2023/09/24 03:09:18;;;;;;;5.70;3.77;;;;;;;;;;5058728;28;20197;-74
2023/09/24 03:11:45;;;;;;;4.70;3.63;;;;;;;;;;5041997;28;20194;-74
2023/09/24 03:14:11;;;;;;;4.40;4.00;;;;;;;;;;5077167;28;20517;-74
2023/09/24 03:16:38;;;;;;;7.20;4.13;;;;;;;;;;5076627;28;20221;-74
2023/09/24 03:19:06;;;;;;;5.83;4.03;;;;;;;;;;5076324;28;20182;-74
2023/09/24 03:21:32;;;;;;;4.07;3.47;;;;;;;;;;5058420;28;20311;-74
2023/09/24 03:24:02;;;;;;;4.07;3.30;;;;;;;;;;5076341;28;20220;-74
2023/09/24 03:26:29;;;;;;;4.27;3.47;;;;;;;;;;5075074;28;20253;-74
2023/09/24 03:28:57;;;;;;;3.53;3.17;;;;;;;;;;5041912;28;20197;-75
2023/09/24 03:31:23;;;;;;;4.17;2.93;;;;;;;;;;5076598;28;20265;-75
2023/09/24 03:33:51;;;;;;;4.87;3.00;;;;;;;;;;5041762;28;20190;-74
2023/09/24 03:36:18;;;;;;;3.30;3.00;;;;;;;;;;5058300;28;20215;-75
2023/09/24 03:38:46;;;;;;;3.13;2.80;;;;;;;;;;5058229;28;20197;-74
2023/09/24 03:41:14;;;;;;;3.37;2.67;;;;;;;;;;5059043;28;20209;-74
2023/09/24 03:43:42;;;;;;;3.20;2.73;;;;;;;;;;5042224;28;20196;-74
2023/09/24 03:46:09;;;;;;;3.10;2.80;;;;;;;;;;5058293;28;20198;-74
2023/09/24 03:52:37;;;;;;;4.83;2.90;;;;;;;;;;5075250;28;20662;-74
2023/09/24 03:55:04;;;;;;;4.33;3.30;;;;;;;;;;5057819;28;20244;-74
2023/09/24 04:01:24;;;;;;;4.00;3.10;;;;;;;;;;5075417;28;20149;-74
2023/09/24 04:03:53;;;;;;;4.30;2.30;;;;;;;;;;5057560;28;20312;-74
2023/09/24 04:06:21;;;;;;;3.20;2.70;;;;;;;;;;5057468;28;20296;-75
2023/09/24 04:08:48;;;;;;;2.87;2.53;;;;;;;;;;5057507;28;20194;-74
2023/09/24 04:11:15;;;;;;;4.80;2.67;;;;;;;;;;5073991;28;20174;-74
2023/09/24 04:13:42;;;;;;;5.03;2.63;;;;;;;;;;5057808;28;20182;-74
2023/09/24 04:16:09;;;;;;;3.33;2.40;;;;;;;;;;5057478;28;20190;-74
2023/09/24 04:18:53;;;;;;;5.03;2.50;;;;;;;;;;5060041;28;20165;-74
2023/09/24 04:21:20;;;;;;;3.00;2.40;;;;;;;;;;5075541;28;20206;-74
2023/09/24 04:23:47;;;;;;;2.90;2.50;;;;;;;;;;5075540;28;20568;-74
2023/09/24 04:26:20;;;;;;;4.43;3.03;;;;;;;;;;5058128;28;20243;-74
2023/09/24 04:28:48;;;;;;;4.50;2.47;;;;;;;;;;5057407;28;20220;-74
2023/09/24 04:31:16;;;;;;;4.73;3.00;;;;;;;;;;5057437;28;20188;-74
2023/09/24 04:33:44;;;;;;;2.60;2.40;;;;;;;;;;5075185;28;20189;-75
2023/09/24 04:36:11;;;;;;;2.63;2.43;;;;;;;;;;5057657;28;20617;-74
2023/09/24 04:38:40;;;;;;;2.50;2.10;;;;;;;;;;5057448;28;20194;-73
2023/09/24 04:41:07;;;;;;;4.17;2.40;;;;;;;;;;5057670;28;20660;-74
2023/09/24 04:43:35;;;;;;;3.97;2.60;;;;;;;;;;5057784;28;20235;-74
2023/09/24 04:46:04;;;;;;;4.03;2.57;;;;;;;;;;5057063;28;20208;-74
2023/09/24 04:48:32;;;;;;;3.40;2.30;;;;;;;;;;5075697;28;20235;-74
2023/09/24 04:51:00;;;;;;;5.57;3.07;;;;;;;;;;5057115;28;20212;-74
2023/09/24 04:53:27;;;;;;;3.23;2.50;;;;;;;;;;5057640;28;20306;-73
2023/09/24 04:55:54;;;;;;;3.57;2.23;;;;;;;;;;5056971;28;20236;-73
2023/09/24 04:58:21;;;;;;;3.27;2.47;;;;;;;;;;5074111;28;20273;-73
2023/09/24 05:00:48;;;;;;;4.10;2.67;;;;;;;;;;5057132;28;20225;-74
2023/09/24 05:03:16;;;;;;;3.60;3.30;;;;;;;;;;5056610;28;20186;-74
2023/09/24 05:05:43;;;;;;;2.77;2.50;;;;;;;;;;5039989;28;20653;-73
2023/09/24 05:08:10;;;;;;;4.30;3.20;;;;;;;;;;5057128;28;20183;-73
2023/09/24 05:10:39;;;;;;;4.87;3.47;;;;;;;;;;5074855;28;20183;-74
2023/09/24 05:13:24;;;;;;;4.07;3.43;;;;;;;;;;5074947;28;20149;-74
2023/09/24 05:15:53;;;;;;;5.03;3.20;;;;;;;;;;5075087;28;20174;-74
2023/09/24 05:18:21;;;;;;;4.10;3.00;;;;;;;;;;5073161;28;20633;-74
2023/09/24 05:20:50;;;;;;;3.40;3.10;;;;;;;;;;5073502;28;20522;-75
2023/09/24 05:23:17;;;;;;;5.70;3.67;;;;;;;;;;5056774;28;20224;-75
2023/09/24 05:26:02;;;;;;;3.87;3.10;;;;;;;;;;5074848;28;20185;-75
2023/09/24 05:28:29;;;;;;;3.30;3.00;;;;;;;;;;5073413;28;20197;-74
2023/09/24 05:31:15;;;;;;;4.37;3.03;;;;;;;;;;5074961;28;20154;-74
2023/09/24 05:33:44;;;;;;;3.33;3.03;;;;;;;;;;5039822;28;20194;-74
2023/09/24 05:36:12;;;;;;;4.23;3.20;;;;;;;;;;5040028;28;20242;-74
2023/09/24 05:38:39;;;;;;;4.90;3.83;;;;;;;;;;5040046;28;20194;-74
2023/09/24 05:41:06;;;;;;;4.97;4.10;;;;;;;;;;5057479;28;20253;-91
2023/09/24 05:47:28;;;;;;;5.93;5.03;;;;;;;;;;5077041;28;20166;-82
2023/09/24 05:57:47;;;;;;;6.40;4.60;;;;;;;;;;5056419;28;20230;-89
2023/09/24 06:00:16;;;;;;;8.60;5.20;;;;;;;;;;5039842;28;20198;-87
2023/09/24 06:02:43;;;;;;;6.53;5.13;;;;;;;;;;5056595;28;20261;-88
2023/09/24 06:09:16;;;;;;;7.53;5.40;;;;;;;;;;5054883;28;20154;-92
2023/09/24 06:11:47;;;;;;;7.23;5.67;;;;;;;;;;5037550;28;20175;-88
2023/09/24 06:18:14;;;;;;;9.37;5.93;;;;;;;;;;5058592;28;20161;-81
2023/09/24 06:20:43;;;;;;;8.00;5.87;;;;;;;;;;5024264;28;20206;-88
2023/09/24 06:23:10;;;;;;;7.73;6.17;;;;;;;;;;5040884;28;20186;-88
2023/09/24 06:25:37;;;;;;;9.47;6.77;;;;;;;;;;5059106;28;20213;-80
2023/09/24 06:28:09;;;;;;;9.40;6.30;;;;;;;;;;5044398;28;20206;-80
2023/09/24 06:30:40;;;;;;;8.90;5.93;;;;;;;;;;5064620;28;20158;-85
2023/09/24 06:33:13;;;;;;;8.80;6.40;;;;;;;;;;5056186;28;20189;-89
2023/09/24 06:35:41;;;;;;;8.40;6.17;;;;;;;;;;5055546;28;20194;-93
2023/09/24 06:42:02;;;;;;;7.77;5.53;;;;;;;;;;5080444;28;20199;-92
2023/09/24 06:44:30;;;;;;;6.67;5.37;;;;;;;;;;5062108;28;20685;-90
2023/09/24 06:46:57;;;;;;;7.63;5.27;;;;;;;;;;5044876;28;20267;-84
2023/09/24 06:49:25;;;;;;;7.17;4.53;;;;;;;;;;5078483;28;20185;-85
2023/09/24 06:51:53;;;;;;;9.57;5.50;;;;;;;;;;5060080;28;20269;-84
2023/09/24 06:58:15;;;;;;;5.73;4.53;;;;;;;;;;5073941;28;20256;-90
2023/09/24 07:00:42;;;;;;;4.60;4.07;;;;;;;;;;5060609;28;20194;-80
2023/09/24 07:07:09;;;;;;;4.03;2.83;;;;;;;;;;5077760;28;20667;-79
2023/09/24 07:09:36;;;;;;;6.20;3.47;;;;;;;;;;5059840;28;20655;-80
2023/09/24 07:12:04;;;;;;;3.50;2.90;;;;;;;;;;5077641;28;20178;-80
2023/09/24 07:14:31;;;;;;;3.57;2.73;;;;;;;;;;5060169;28;20569;-81
2023/09/24 07:16:59;;;;;;;6.83;2.80;;;;;;;;;;5076939;28;20186;-81
2023/09/24 07:19:25;;;;;;;3.30;2.13;;;;;;;;;;5075924;28;20205;-81
2023/09/24 07:21:52;;;;;;;5.30;2.63;;;;;;;;;;5059058;28;20190;-80
2023/09/24 07:24:19;;;;;;;2.87;2.30;;;;;;;;;;5059336;28;20266;-81
2023/09/24 07:26:47;;;;;;;4.60;2.37;;;;;;;;;;5074415;28;20236;-80
2023/09/24 07:29:14;;;;;;;5.77;2.80;;;;;;;;;;5059990;28;20174;-79
2023/09/24 07:31:41;;;;;;;3.23;2.30;;;;;;;;;;5043131;28;20189;-81
2023/09/24 07:34:10;;;;;;;3.77;2.80;;;;;;;;;;5078106;28;20190;-81
2023/09/24 07:36:37;;;;;;;3.37;2.13;;;;;;;;;;5060068;28;20207;-81
2023/09/24 07:39:23;;;;;;;3.87;2.40;;;;;;;;;;5078773;28;20506;-80
2023/09/24 07:41:50;;;;;;;3.80;2.40;;;;;;;;;;5078510;28;20186;-80
2023/09/24 07:44:18;;;;;;;5.57;2.63;;;;;;;;;;5059991;28;20198;-80
2023/09/24 07:46:48;;;;;;;3.47;2.57;;;;;;;;;;5059240;28;20553;-82
2023/09/24 07:49:16;;;;;;;2.87;2.07;;;;;;;;;;5060521;28;20198;-82
2023/09/24 07:51:43;;;;;;;4.00;2.43;;;;;;;;;;5061657;28;20679;-80
2023/09/24 07:54:10;;;;;;;4.80;2.60;;;;;;;;;;5059545;28;20202;-81
2023/09/24 07:56:42;;;;;;;4.67;2.50;;;;;;;;;;5044825;28;20178;-82
2023/09/24 07:59:10;;;;;;;3.37;2.17;;;;;;;;;;5058139;28;20167;-81
2023/09/24 08:01:38;;;;;;;3.20;1.90;;;;;;;;;;5042974;28;20573;-84
2023/09/24 08:04:09;;;;;;;3.40;2.10;;;;;;;;;;5041815;28;20195;-82
2023/09/24 08:06:42;;;;;;;4.87;2.23;;;;;;;;;;5062582;28;20272;-81
2023/09/24 08:09:12;;;;;;;3.00;2.00;;;;;;;;;;5041834;28;20305;-82
2023/09/24 08:11:53;;;;;;;3.73;1.73;;;;;;;;;;5024945;28;20711;-82
2023/09/24 08:14:21;;;;;;;3.30;2.00;;;;;;;;;;5058197;28;20186;-81
2023/09/24 08:16:48;;;;;;;2.67;1.70;;;;;;;;;;5056957;28;20182;-80
2023/09/24 08:19:15;;;;;;;2.83;1.53;;;;;;;;;;5054910;28;20191;-77
2023/09/24 08:21:42;;;;;;;2.77;1.73;;;;;;;;;;5055611;28;20191;-78
2023/09/24 08:24:09;;;;;;;2.30;1.30;;;;;;;;;;5046175;28;20298;-78
2023/09/24 08:26:36;;;;;;;1.73;1.10;;;;;;;;;;5037378;28;20206;-78
2023/09/24 08:29:06;;;;;;;1.73;1.10;;;;;;;;;;5021420;28;20191;-77
2023/09/24 08:31:34;;;;;;;2.47;1.37;;;;;;;;;;5022287;28;20191;-77
2023/09/24 08:34:03;;;;;;;3.00;1.20;;;;;;;;;;5040704;28;20190;-85
2023/09/24 08:36:50;;;;;;;2.03;1.20;;;;;;;;;;5006383;28;20257;-73
2023/09/24 08:39:17;;;;;;;2.33;1.57;;;;;;;;;;5044455;28;20302;-74
2023/09/24 08:49:42;;;;;;;3.10;1.20;;;;;;;;;;5034985;28;20159;-73
2023/09/24 08:52:09;;;;;;;3.20;1.20;;;;;;;;;;5049611;28;20183;-73
2023/09/24 08:54:37;;;;;;;2.43;1.17;;;;;;;;;;5039803;28;20214;-74
2023/09/24 08:57:04;;;;;;;1.30;1.10;;;;;;;;;;5039816;28;20289;-74
2023/09/24 08:59:31;;;;;;;2.10;0.80;;;;;;;;;;5057035;28;20182;-73
2023/09/24 09:01:58;;;;;;;1.77;0.90;;;;;;;;;;5058742;28;20698;-76
2023/09/24 09:04:27;;;;;;;1.70;1.00;;;;;;;;;;5039782;28;20213;-76
2023/09/24 09:07:09;;;;;;;3.53;0.83;;;;;;;;;;5041429;28;20300;-79
2023/09/24 09:09:36;;;;;;;2.43;0.90;;;;;;;;;;5056895;28;20166;-79
2023/09/24 09:16:02;;;;;;;3.47;0.77;;;;;;;;;;5073888;28;20157;-70
2023/09/24 09:18:29;;;;;;;1.10;0.70;;;;;;;;;;5073990;28;20191;-71
2023/09/24 09:20:59;;;;;;;1.17;0.60;;;;;;;;;;5056328;28;20220;-70
2023/09/24 09:23:35;;;;;;;1.37;0.60;;;;;;;;;;5075307;28;20212;-70
2023/09/24 09:26:06;;;;;;;1.70;0.80;;;;;;;;;;5057111;28;20200;-70
2023/09/24 09:28:34;;;;;;;2.20;0.80;;;;;;;;;;5056291;28;20194;-72
2023/09/24 09:31:08;;;;;;;2.67;0.80;;;;;;;;;;5056366;28;20193;-71
2023/09/24 09:33:43;;;;;;;1.73;0.83;;;;;;;;;;5056577;28;20247;-71
2023/09/24 09:36:21;;;;;;;1.90;0.90;;;;;;;;;;5039789;28;20185;-70
2023/09/24 09:39:06;;;;;;;2.87;0.80;;;;;;;;;;5058852;28;20673;-71
2023/09/24 09:45:34;;;;;;;1.37;0.93;;;;;;;;;;5053657;28;20153;-70
2023/09/24 09:52:11;;;;;;;1.30;0.70;;;;;;;;;;5047766;28;20522;-77
2023/09/24 09:58:59;;;;;;;1.53;0.70;;;;;;;;;;5053932;28;20684;-77
2023/09/24 10:14:38;;;;;;;2.10;0.60;;;;;;;;;;5053927;28;20584;-77
2023/09/24 10:18:03;;;;;;;;;;;;;;;;;;;;;
2023/09/24 10:21:05;;;;;;;0.80;0.60;;;;;;;;;;4961702;28;20259;-75
2023/09/24 10:24:01;;;;;;;3.53;0.70;;;;;;;;;;4939768;28;20254;-76
2023/09/24 10:35:26;;;;;;;2.13;1.10;;;;;;;;;;4878423;29;20180;-75
2023/09/24 10:46:04;;;;;;;2.43;0.90;;;;;;;;;;4883737;29;20626;-76
2023/09/24 10:56:39;;;;;;;;;;;;;;;;;;;;;
2023/09/24 11:08:06;;;;;;;3.43;1.00;;;;;;;;;;4867277;29;20595;-75
2023/09/24 11:11:52;;;;;;;3.30;0.97;;;;;;;;;;4890237;29;20204;-80
2023/09/24 11:19:29;;;;;;;2.47;0.83;;;;;;;;;;4958177;29;20161;-80
2023/09/24 11:22:37;;;;;;;2.47;0.80;;;;;;;;;;4951756;29;20289;-78
2023/09/24 11:25:56;;;;;;;4.60;1.00;;;;;;;;;;4921456;29;20195;-79
2023/09/24 11:29:41;;;;;;;;;;;;;;;;;;;;;
2023/09/24 11:33:26;;;;;;;1.93;0.90;;;;;;;;;;4878133;29;20618;-80
2023/09/24 11:56:28;;;;;;;2.10;0.80;;;;;;;;;;5002625;28;20651;-76
2023/09/24 12:03:49;;;;;;;2.20;0.87;;;;;;;;;;4956645;28;20561;-74
